Terminal Aerodrome Forecast
Issued by NWS

Home | Current Version | Previous Version | Graphics & Text | Print | Product List | Glossary On
Versions: 1 2 3 4 5 6 7 8 9 10 11 12 13 14 15
000
FTUS43 KIWX 150540
TAFSBN
TAF
KSBN 150540Z 1506/1606 20014KT P6SM -SHRA VCTS OVC060CB
      WS020/22050KT
      TEMPO 1506/1509 4SM -TSRA BR
     FM150900 23015KT P6SM VCSH OVC045
     FM151100 25015KT P6SM VCSH OVC015
     FM152000 32016G24KT P6SM BKN025
     FM152300 33010KT P6SM BKN035=

USA.gov is the U.S. government's official web portal to all federal, state and local government web resources and services.